sensor_id;sensor_type;location;lat;lon;timestamp;pressure;altitude;pressure_sealevel;temperature;humidity
80892;BME280;70343;51.530;5.050;2024-03-02T00:01:51;99815.81;;;7.60;100.00
80892;BME280;70343;51.530;5.050;2024-03-02T00:04:17;99812.00;;;7.56;100.00
80892;BME280;70343;51.530;5.050;2024-03-02T00:06:42;99817.38;;;7.61;100.00
80892;BME280;70343;51.530;5.050;2024-03-02T00:09:09;99812.59;;;7.58;100.00
80892;BME280;70343;51.530;5.050;2024-03-02T00:11:38;99817.13;;;7.43;100.00
80892;BME280;70343;51.530;5.050;2024-03-02T00:14:04;99820.19;;;7.53;100.00
80892;BME280;70343;51.530;5.050;2024-03-02T00:16:33;99815.31;;;7.43;100.00
80892;BME280;70343;51.530;5.050;2024-03-02T00:19:05;99829.72;;;7.46;100.00
80892;BME280;70343;51.530;5.050;2024-03-02T00:21:33;99816.53;;;7.41;100.00
80892;BME280;70343;51.530;5.050;2024-03-02T00:23:59;99819.13;;;7.47;100.00
80892;BME280;70343;51.530;5.050;2024-03-02T00:26:25;99818.31;;;7.40;100.00
80892;BME280;70343;51.530;5.050;2024-03-02T00:28:54;99825.09;;;7.41;100.00
80892;BME280;70343;51.530;5.050;2024-03-02T00:31:22;99831.84;;;7.36;100.00
80892;BME280;70343;51.530;5.050;2024-03-02T00:33:48;99833.47;;;7.43;100.00
80892;BME280;70343;51.530;5.050;2024-03-02T00:36:15;99831.06;;;7.35;100.00
80892;BME280;70343;51.530;5.050;2024-03-02T00:38:52;99824.50;;;7.39;100.00
80892;BME280;70343;51.530;5.050;2024-03-02T00:41:25;99825.06;;;7.35;100.00
80892;BME280;70343;51.530;5.050;2024-03-02T00:46:20;99817.50;;;7.40;100.00
80892;BME280;70343;51.530;5.050;2024-03-02T00:48:57;99813.28;;;7.32;100.00
80892;BME280;70343;51.530;5.050;2024-03-02T00:51:24;99825.44;;;7.32;100.00
80892;BME280;70343;51.530;5.050;2024-03-02T00:53:52;99825.06;;;7.35;100.00
80892;BME280;70343;51.530;5.050;2024-03-02T00:56:19;99817.91;;;7.37;100.00
80892;BME280;70343;51.530;5.050;2024-03-02T00:58:44;99828.66;;;7.34;100.00
80892;BME280;70343;51.530;5.050;2024-03-02T01:01:10;99830.69;;;7.38;100.00
80892;BME280;70343;51.530;5.050;2024-03-02T01:03:35;99825.47;;;7.38;100.00
80892;BME280;70343;51.530;5.050;2024-03-02T01:06:02;99825.47;;;7.38;100.00
80892;BME280;70343;51.530;5.050;2024-03-02T01:08:28;99846.81;;;7.34;100.00
80892;BME280;70343;51.530;5.050;2024-03-02T01:10:54;99841.03;;;7.38;100.00
80892;BME280;70343;51.530;5.050;2024-03-02T01:13:21;99839.06;;;7.40;100.00
80892;BME280;70343;51.530;5.050;2024-03-02T01:15:47;99843.56;;;7.25;100.00
80892;BME280;70343;51.530;5.050;2024-03-02T01:18:12;99845.16;;;7.26;100.00
80892;BME280;70343;51.530;5.050;2024-03-02T01:20:38;99834.94;;;7.18;100.00
80892;BME280;70343;51.530;5.050;2024-03-02T01:23:04;99852.94;;;7.26;100.00
80892;BME280;70343;51.530;5.050;2024-03-02T01:25:29;99853.75;;;7.27;100.00
80892;BME280;70343;51.530;5.050;2024-03-02T01:27:55;99843.16;;;7.22;100.00
80892;BME280;70343;51.530;5.050;2024-03-02T01:30:20;99856.97;;;7.29;100.00
80892;BME280;70343;51.530;5.050;2024-03-02T01:32:47;99842.38;;;7.28;100.00
80892;BME280;70343;51.530;5.050;2024-03-02T01:35:12;99848.75;;;7.25;100.00
80892;BME280;70343;51.530;5.050;2024-03-02T01:37:38;99863.09;;;7.21;100.00
80892;BME280;70343;51.530;5.050;2024-03-02T01:40:03;99861.69;;;7.18;100.00
80892;BME280;70343;51.530;5.050;2024-03-02T01:42:37;99867.44;;;7.14;100.00
80892;BME280;70343;51.530;5.050;2024-03-02T01:45:05;99869.47;;;7.18;100.00
80892;BME280;70343;51.530;5.050;2024-03-02T01:47:31;99857.22;;;7.06;100.00
80892;BME280;70343;51.530;5.050;2024-03-02T01:49:58;99865.63;;;7.08;100.00
80892;BME280;70343;51.530;5.050;2024-03-02T01:52:23;99871.84;;;7.13;100.00
80892;BME280;70343;51.530;5.050;2024-03-02T01:54:49;99854.44;;;7.07;100.00
80892;BME280;70343;51.530;5.050;2024-03-02T01:57:15;99850.47;;;7.11;100.00
80892;BME280;70343;51.530;5.050;2024-03-02T01:59:41;99853.22;;;7.03;100.00
80892;BME280;70343;51.530;5.050;2024-03-02T02:02:07;99860.38;;;7.01;100.00
80892;BME280;70343;51.530;5.050;2024-03-02T02:04:32;99866.03;;;7.11;100.00
80892;BME280;70343;51.530;5.050;2024-03-02T02:06:58;99855.41;;;7.06;100.00
80892;BME280;70343;51.530;5.050;2024-03-02T02:09:24;99859.63;;;7.07;100.00
80892;BME280;70343;51.530;5.050;2024-03-02T02:11:51;99851.69;;;7.15;100.00
80892;BME280;70343;51.530;5.050;2024-03-02T02:14:17;99839.09;;;7.06;100.00
80892;BME280;70343;51.530;5.050;2024-03-02T02:16:42;99843.69;;;7.10;100.00
80892;BME280;70343;51.530;5.050;2024-03-02T02:19:08;99858.88;;;7.13;100.00
80892;BME280;70343;51.530;5.050;2024-03-02T02:21:34;99861.22;;;7.08;100.00
80892;BME280;70343;51.530;5.050;2024-03-02T02:24:00;99862.22;;;7.07;100.00
80892;BME280;70343;51.530;5.050;2024-03-02T02:26:28;99846.41;;;7.02;100.00
80892;BME280;70343;51.530;5.050;2024-03-02T02:28:53;99849.63;;;7.04;100.00
80892;BME280;70343;51.530;5.050;2024-03-02T02:31:19;99849.00;;;7.02;100.00
80892;BME280;70343;51.530;5.050;2024-03-02T02:33:44;99845.66;;;7.08;100.00
80892;BME280;70343;51.530;5.050;2024-03-02T02:36:10;99849.28;;;7.14;100.00
80892;BME280;70343;51.530;5.050;2024-03-02T02:38:39;99850.09;;;7.14;100.00
80892;BME280;70343;51.530;5.050;2024-03-02T02:41:06;99846.88;;;7.12;100.00
80892;BME280;70343;51.530;5.050;2024-03-02T02:43:31;99837.28;;;7.06;100.00
80892;BME280;70343;51.530;5.050;2024-03-02T02:45:57;99844.06;;;7.07;100.00
80892;BME280;70343;51.530;5.050;2024-03-02T02:48:22;99842.84;;;7.03;100.00
80892;BME280;70343;51.530;5.050;2024-03-02T02:50:48;99843.22;;;7.00;100.00
80892;BME280;70343;51.530;5.050;2024-03-02T02:53:13;99848.41;;;7.00;100.00
80892;BME280;70343;51.530;5.050;2024-03-02T02:55:39;99845.44;;;7.03;100.00
80892;BME280;70343;51.530;5.050;2024-03-02T02:58:06;99848.88;;;7.10;100.00
80892;BME280;70343;51.530;5.050;2024-03-02T03:00:31;99840.06;;;7.05;100.00
80892;BME280;70343;51.530;5.050;2024-03-02T03:02:57;99838.69;;;7.09;100.00
80892;BME280;70343;51.530;5.050;2024-03-02T03:05:23;99842.25;;;7.01;100.00
80892;BME280;70343;51.530;5.050;2024-03-02T03:07:48;99849.25;;;7.07;100.00
80892;BME280;70343;51.530;5.050;2024-03-02T03:10:16;99841.22;;;7.02;100.00
80892;BME280;70343;51.530;5.050;2024-03-02T03:12:42;99847.22;;;7.03;100.00
80892;BME280;70343;51.530;5.050;2024-03-02T03:15:10;99849.41;;;6.99;100.00
80892;BME280;70343;51.530;5.050;2024-03-02T03:17:37;99847.41;;;7.01;100.00
80892;BME280;70343;51.530;5.050;2024-03-02T03:20:03;99850.44;;;7.05;100.00
80892;BME280;70343;51.530;5.050;2024-03-02T03:22:30;99849.59;;;6.98;100.00
80892;BME280;70343;51.530;5.050;2024-03-02T03:24:56;99864.94;;;6.99;100.00
80892;BME280;70343;51.530;5.050;2024-03-02T03:27:22;99865.31;;;6.96;100.00
80892;BME280;70343;51.530;5.050;2024-03-02T03:29:47;99859.16;;;6.97;100.00
80892;BME280;70343;51.530;5.050;2024-03-02T03:32:13;99856.56;;;6.97;100.00
80892;BME280;70343;51.530;5.050;2024-03-02T03:34:39;99868.34;;;7.00;100.00
80892;BME280;70343;51.530;5.050;2024-03-02T03:37:04;99870.69;;;6.95;100.00
80892;BME280;70343;51.530;5.050;2024-03-02T03:39:30;99873.09;;;6.96;100.00
80892;BME280;70343;51.530;5.050;2024-03-02T03:41:55;99866.94;;;6.97;100.00
80892;BME280;70343;51.530;5.050;2024-03-02T03:44:21;99868.16;;;7.01;100.00
80892;BME280;70343;51.530;5.050;2024-03-02T03:46:46;99870.19;;;7.06;100.00
80892;BME280;70343;51.530;5.050;2024-03-02T03:49:12;99870.34;;;7.04;100.00
80892;BME280;70343;51.530;5.050;2024-03-02T03:51:37;99863.16;;;7.00;100.00
80892;BME280;70343;51.530;5.050;2024-03-02T03:54:03;99868.38;;;7.06;100.00
80892;BME280;70343;51.530;5.050;2024-03-02T03:56:28;99862.41;;;7.06;100.00
80892;BME280;70343;51.530;5.050;2024-03-02T03:58:54;99872.38;;;7.09;100.00
80892;BME280;70343;51.530;5.050;2024-03-02T04:01:19;99870.00;;;7.07;100.00
80892;BME280;70343;51.530;5.050;2024-03-02T04:03:47;99870.34;;;7.04;100.00
80892;BME280;70343;51.530;5.050;2024-03-02T04:06:12;99863.16;;;7.00;100.00
80892;BME280;70343;51.530;5.050;2024-03-02T04:08:39;99873.53;;;7.00;100.00
80892;BME280;70343;51.530;5.050;2024-03-02T04:11:04;99876.50;;;6.97;100.00
80892;BME280;70343;51.530;5.050;2024-03-02T04:13:30;99866.69;;;6.92;100.00
80892;BME280;70343;51.530;5.050;2024-03-02T04:15:55;99862.03;;;6.81;100.00
80892;BME280;70343;51.530;5.050;2024-03-02T04:18:21;99870.66;;;6.88;100.00
80892;BME280;70343;51.530;5.050;2024-03-02T04:20:46;99878.78;;;6.85;100.00
80892;BME280;70343;51.530;5.050;2024-03-02T04:23:12;99877.81;;;6.86;100.00
80892;BME280;70343;51.530;5.050;2024-03-02T04:25:37;99875.78;;;6.82;100.00
80892;BME280;70343;51.530;5.050;2024-03-02T04:28:03;99880.13;;;6.75;100.00
80892;BME280;70343;51.530;5.050;2024-03-02T04:30:28;99881.66;;;6.69;100.00
80892;BME280;70343;51.530;5.050;2024-03-02T04:32:54;99877.47;;;6.68;100.00
80892;BME280;70343;51.530;5.050;2024-03-02T04:35:19;99886.81;;;6.69;100.00
80892;BME280;70343;51.530;5.050;2024-03-02T04:37:45;99879.31;;;6.74;100.00
80892;BME280;70343;51.530;5.050;2024-03-02T04:40:11;99896.22;;;6.70;100.00
80892;BME280;70343;51.530;5.050;2024-03-02T04:42:36;99885.59;;;6.65;100.00
80892;BME280;70343;51.530;5.050;2024-03-02T04:45:02;99887.44;;;6.71;100.00
80892;BME280;70343;51.530;5.050;2024-03-02T04:47:28;99889.25;;;6.71;100.00
80892;BME280;70343;51.530;5.050;2024-03-02T04:49:53;99897.19;;;6.69;100.00
80892;BME280;70343;51.530;5.050;2024-03-02T04:52:19;99891.22;;;6.69;100.00
80892;BME280;70343;51.530;5.050;2024-03-02T04:54:44;99900.78;;;6.68;100.00
80892;BME280;70343;51.530;5.050;2024-03-02T04:57:28;99904.72;;;6.64;100.00
80892;BME280;70343;51.530;5.050;2024-03-02T04:59:54;99902.75;;;6.66;100.00
80892;BME280;70343;51.530;5.050;2024-03-02T05:02:19;99915.44;;;6.61;100.00
80892;BME280;70343;51.530;5.050;2024-03-02T05:04:45;99906.31;;;6.65;100.00
80892;BME280;70343;51.530;5.050;2024-03-02T05:07:10;99908.56;;;6.68;100.00
80892;BME280;70343;51.530;5.050;2024-03-02T05:09:36;99910.75;;;6.71;100.00
80892;BME280;70343;51.530;5.050;2024-03-02T05:12:01;99904.59;;;6.72;100.00
80892;BME280;70343;51.530;5.050;2024-03-02T05:14:45;99906.72;;;6.62;100.00
80892;BME280;70343;51.530;5.050;2024-03-02T05:17:11;99907.56;;;6.69;100.00
80892;BME280;70343;51.530;5.050;2024-03-02T05:19:36;99907.94;;;6.66;100.00
80892;BME280;70343;51.530;5.050;2024-03-02T05:22:02;99904.13;;;6.62;100.00
80892;BME280;70343;51.530;5.050;2024-03-02T05:24:28;99907.44;;;6.56;100.00
80892;BME280;70343;51.530;5.050;2024-03-02T05:26:54;99908.91;;;6.44;100.00
80892;BME280;70343;51.530;5.050;2024-03-02T05:29:19;99908.72;;;6.46;100.00
80892;BME280;70343;51.530;5.050;2024-03-02T05:31:45;99912.69;;;6.42;100.00
80892;BME280;70343;51.530;5.050;2024-03-02T05:34:11;99928.28;;;6.48;100.00
80892;BME280;70343;51.530;5.050;2024-03-02T05:36:36;99917.31;;;6.46;100.00
80892;BME280;70343;51.530;5.050;2024-03-02T05:39:04;99915.44;;;6.40;100.00
80892;BME280;70343;51.530;5.050;2024-03-02T05:41:32;99918.16;;;6.32;100.00
80892;BME280;70343;51.530;5.050;2024-03-02T05:43:57;99917.19;;;6.33;100.00
80892;BME280;70343;51.530;5.050;2024-03-02T05:46:23;99924.94;;;6.33;100.00
80892;BME280;70343;51.530;5.050;2024-03-02T05:48:48;99925.28;;;6.30;100.00
80892;BME280;70343;51.530;5.050;2024-03-02T05:51:14;99928.44;;;6.25;100.00
80892;BME280;70343;51.530;5.050;2024-03-02T05:53:39;99928.34;;;6.34;100.00
80892;BME280;70343;51.530;5.050;2024-03-02T05:56:05;99931.97;;;6.39;100.00
80892;BME280;70343;51.530;5.050;2024-03-02T05:58:31;99923.22;;;6.40;100.00
80892;BME280;70343;51.530;5.050;2024-03-02T06:00:59;99919.28;;;6.44;100.00
80892;BME280;70343;51.530;5.050;2024-03-02T06:03:25;99929.28;;;6.47;100.00
80892;BME280;70343;51.530;5.050;2024-03-02T06:05:51;99927.66;;;6.46;100.00
80892;BME280;70343;51.530;5.050;2024-03-02T06:08:17;99936.03;;;6.48;100.00
80892;BME280;70343;51.530;5.050;2024-03-02T06:10:43;99932.53;;;6.56;100.00
80892;BME280;70343;51.530;5.050;2024-03-02T06:13:08;99929.16;;;6.55;100.00
80892;BME280;70343;51.530;5.050;2024-03-02T06:15:34;99934.97;;;6.57;100.00
80892;BME280;70343;51.530;5.050;2024-03-02T06:18:01;99933.34;;;6.56;100.00
80892;BME280;70343;51.530;5.050;2024-03-02T06:20:26;99936.94;;;6.55;100.00
80892;BME280;70343;51.530;5.050;2024-03-02T06:22:52;99933.47;;;6.48;100.00
80892;BME280;70343;51.530;5.050;2024-03-02T06:25:17;99934.47;;;6.47;100.00
80892;BME280;70343;51.530;5.050;2024-03-02T06:27:43;99934.63;;;6.46;100.00
80892;BME280;70343;51.530;5.050;2024-03-02T06:30:09;99943.81;;;6.48;100.00
80892;BME280;70343;51.530;5.050;2024-03-02T06:32:34;99951.78;;;6.47;100.00
80892;BME280;70343;51.530;5.050;2024-03-02T06:35:00;99957.19;;;6.52;100.00
80892;BME280;70343;51.530;5.050;2024-03-02T06:37:25;99948.44;;;6.53;100.00
80892;BME280;70343;51.530;5.050;2024-03-02T06:39:51;99955.22;;;6.54;100.00
80892;BME280;70343;51.530;5.050;2024-03-02T06:42:16;99955.78;;;6.49;100.00
80892;BME280;70343;51.530;5.050;2024-03-02T06:44:42;99961.59;;;6.51;100.00
80892;BME280;70343;51.530;5.050;2024-03-02T06:47:07;99961.31;;;6.46;100.00
80892;BME280;70343;51.530;5.050;2024-03-02T06:49:33;99957.25;;;6.37;100.00
80892;BME280;70343;51.530;5.050;2024-03-02T06:51:59;99964.28;;;6.43;100.00
80892;BME280;70343;51.530;5.050;2024-03-02T06:54:25;99958.84;;;6.38;100.00
80892;BME280;70343;51.530;5.050;2024-03-02T06:56:50;99962.25;;;6.39;100.00
80892;BME280;70343;51.530;5.050;2024-03-02T06:59:15;99964.53;;;6.48;100.00
80892;BME280;70343;51.530;5.050;2024-03-02T07:01:41;99963.00;;;6.54;100.00
80892;BME280;70343;51.530;5.050;2024-03-02T07:04:08;99965.59;;;6.54;100.00
80892;BME280;70343;51.530;5.050;2024-03-02T07:06:34;99969.28;;;6.66;100.00
80892;BME280;70343;51.530;5.050;2024-03-02T07:08:59;99961.09;;;6.62;100.00
80892;BME280;70343;51.530;5.050;2024-03-02T07:11:25;99964.94;;;6.66;100.00
80892;BME280;70343;51.530;5.050;2024-03-02T07:13:50;99980.19;;;6.61;100.00
80892;BME280;70343;51.530;5.050;2024-03-02T07:16:16;99967.63;;;6.58;100.00
80892;BME280;70343;51.530;5.050;2024-03-02T07:19:07;99980.97;;;6.55;100.00
80892;BME280;70343;51.530;5.050;2024-03-02T07:21:33;99987.09;;;6.54;100.00
80892;BME280;70343;51.530;5.050;2024-03-02T07:23:58;99994.25;;;6.52;100.00
80892;BME280;70343;51.530;5.050;2024-03-02T07:26:25;99994.25;;;6.52;100.00
80892;BME280;70343;51.530;5.050;2024-03-02T07:28:51;99997.22;;;6.49;100.00
80892;BME280;70343;51.530;5.050;2024-03-02T07:31:17;99998.47;;;6.53;100.00
80892;BME280;70343;51.530;5.050;2024-03-02T07:33:45;99995.88;;;6.53;100.00
80892;BME280;70343;51.530;5.050;2024-03-02T07:36:14;99985.53;;;6.53;100.00
80892;BME280;70343;51.530;5.050;2024-03-02T07:38:39;99990.31;;;6.56;100.00
80892;BME280;70343;51.530;5.050;2024-03-02T07:41:06;99997.97;;;6.64;100.00
80892;BME280;70343;51.530;5.050;2024-03-02T07:43:31;99991.56;;;6.81;100.00
80892;BME280;70343;51.530;5.050;2024-03-02T07:45:58;99987.13;;;6.96;100.00
80892;BME280;70343;51.530;5.050;2024-03-02T07:48:25;99992.78;;;7.06;100.00
80892;BME280;70343;51.530;5.050;2024-03-02T07:50:51;99996.22;;;7.35;100.00
80892;BME280;70343;51.530;5.050;2024-03-02T07:53:16;100001.69;;;7.46;100.00
80892;BME280;70343;51.530;5.050;2024-03-02T07:55:42;99995.34;;;7.49;100.00
80892;BME280;70343;51.530;5.050;2024-03-02T07:58:08;99992.81;;;7.62;100.00
80892;BME280;70343;51.530;5.050;2024-03-02T08:00:33;99990.09;;;7.76;100.00
80892;BME280;70343;51.530;5.050;2024-03-02T08:03:00;99988.91;;;7.72;100.00
80892;BME280;70343;51.530;5.050;2024-03-02T08:05:26;99997.31;;;7.81;100.00
80892;BME280;70343;51.530;5.050;2024-03-02T08:07:52;99992.91;;;7.75;100.00
80892;BME280;70343;51.530;5.050;2024-03-02T08:10:18;100006.13;;;7.86;100.00
80892;BME280;70343;51.530;5.050;2024-03-02T08:12:45;99998.75;;;7.90;100.00
80892;BME280;70343;51.530;5.050;2024-03-02T08:15:10;100001.22;;;7.98;100.00
80892;BME280;70343;51.530;5.050;2024-03-02T08:17:39;100006.03;;;8.01;100.00
80892;BME280;70343;51.530;5.050;2024-03-02T08:20:11;100008.22;;;8.04;100.00
80892;BME280;70343;51.530;5.050;2024-03-02T08:22:37;99991.44;;;8.00;100.00
80892;BME280;70343;51.530;5.050;2024-03-02T08:25:03;99994.88;;;8.07;100.00
80892;BME280;70343;51.530;5.050;2024-03-02T08:27:31;99994.31;;;8.18;100.00
80892;BME280;70343;51.530;5.050;2024-03-02T08:29:57;99995.06;;;8.05;100.00
80892;BME280;70343;51.530;5.050;2024-03-02T08:32:22;99995.50;;;8.16;100.00
80892;BME280;70343;51.530;5.050;2024-03-02T08:34:48;99994.19;;;8.26;100.00
80892;BME280;70343;51.530;5.050;2024-03-02T08:37:14;100001.84;;;8.47;100.00
80892;BME280;70343;51.530;5.050;2024-03-02T08:39:39;100002.50;;;8.56;100.00
80892;BME280;70343;51.530;5.050;2024-03-02T08:42:05;100004.53;;;8.73;100.00
80892;BME280;70343;51.530;5.050;2024-03-02T08:44:30;100006.53;;;8.78;100.00
80892;BME280;70343;51.530;5.050;2024-03-02T08:46:56;100011.53;;;8.79;100.00
80892;BME280;70343;51.530;5.050;2024-03-02T08:49:21;100008.56;;;8.89;100.00
80892;BME280;70343;51.530;5.050;2024-03-02T08:51:47;100005.38;;;9.07;100.00
80892;BME280;70343;51.530;5.050;2024-03-02T08:54:22;99995.16;;;9.12;100.00
80892;BME280;70343;51.530;5.050;2024-03-02T08:56:51;100002.59;;;9.15;100.00
80892;BME280;70343;51.530;5.050;2024-03-02T08:59:17;100009.81;;;9.32;100.00
80892;BME280;70343;51.530;5.050;2024-03-02T09:01:42;100013.19;;;9.33;100.00
80892;BME280;70343;51.530;5.050;2024-03-02T09:04:08;100007.78;;;9.41;100.00
80892;BME280;70343;51.530;5.050;2024-03-02T09:06:34;100012.19;;;9.47;100.00
80892;BME280;70343;51.530;5.050;2024-03-02T09:09:00;100030.19;;;9.55;100.00
80892;BME280;70343;51.530;5.050;2024-03-02T09:11:26;100024.19;;;9.41;100.00
80892;BME280;70343;51.530;5.050;2024-03-02T09:13:52;100038.19;;;9.60;100.00
80892;BME280;70343;51.530;5.050;2024-03-02T09:16:18;100034.38;;;9.56;100.00
80892;BME280;70343;51.530;5.050;2024-03-02T09:18:43;100016.16;;;9.62;100.00
80892;BME280;70343;51.530;5.050;2024-03-02T09:21:09;100020.13;;;9.91;100.00
80892;BME280;70343;51.530;5.050;2024-03-02T09:23:35;100017.72;;;9.83;100.00
80892;BME280;70343;51.530;5.050;2024-03-02T09:26:00;100007.69;;;10.00;100.00
80892;BME280;70343;51.530;5.050;2024-03-02T09:28:26;100019.28;;;10.04;100.00
80892;BME280;70343;51.530;5.050;2024-03-02T09:30:51;100016.47;;;10.05;100.00
80892;BME280;70343;51.530;5.050;2024-03-02T09:33:17;100008.91;;;10.10;100.00
80892;BME280;70343;51.530;5.050;2024-03-02T09:35:42;100020.88;;;10.18;99.45
80892;BME280;70343;51.530;5.050;2024-03-02T09:38:08;100013.97;;;10.43;100.00
80892;BME280;70343;51.530;5.050;2024-03-02T09:40:33;100010.34;;;10.44;99.58
80892;BME280;70343;51.530;5.050;2024-03-02T09:42:59;100005.78;;;10.39;98.15
80892;BME280;70343;51.530;5.050;2024-03-02T09:45:26;100010.19;;;10.77;96.95
80892;BME280;70343;51.530;5.050;2024-03-02T09:47:52;100012.25;;;10.61;96.00
80892;BME280;70343;51.530;5.050;2024-03-02T09:50:17;100015.47;;;10.63;95.72
80892;BME280;70343;51.530;5.050;2024-03-02T09:52:43;100016.84;;;10.72;95.41
80892;BME280;70343;51.530;5.050;2024-03-02T09:55:09;100013.03;;;10.68;94.39
80892;BME280;70343;51.530;5.050;2024-03-02T09:57:36;100020.88;;;10.68;90.34
80892;BME280;70343;51.530;5.050;2024-03-02T10:00:01;100015.00;;;10.73;94.84
80892;BME280;70343;51.530;5.050;2024-03-02T10:02:30;100010.00;;;10.71;93.25
80892;BME280;70343;51.530;5.050;2024-03-02T10:04:55;100010.91;;;10.90;90.80
80892;BME280;70343;51.530;5.050;2024-03-02T10:07:21;100011.69;;;10.91;91.51
80892;BME280;70343;51.530;5.050;2024-03-02T10:09:48;100011.78;;;11.09;91.81
80892;BME280;70343;51.530;5.050;2024-03-02T10:12:17;99993.88;;;11.12;88.05
80892;BME280;70343;51.530;5.050;2024-03-02T10:14:43;100011.03;;;11.02;90.64
80892;BME280;70343;51.530;5.050;2024-03-02T10:17:11;99992.88;;;11.13;88.42
80892;BME280;70343;51.530;5.050;2024-03-02T10:19:37;99989.25;;;11.14;84.97
80892;BME280;70343;51.530;5.050;2024-03-02T10:22:08;99989.44;;;11.19;84.59
80892;BME280;70343;51.530;5.050;2024-03-02T10:24:41;99978.31;;;11.24;86.80
80892;BME280;70343;51.530;5.050;2024-03-02T10:27:08;99993.19;;;11.48;85.30
80892;BME280;70343;51.530;5.050;2024-03-02T10:29:37;99992.34;;;11.54;84.51
80892;BME280;70343;51.530;5.050;2024-03-02T10:32:04;99991.22;;;11.68;84.50
80892;BME280;70343;51.530;5.050;2024-03-02T10:34:31;99997.09;;;11.57;85.29
80892;BME280;70343;51.530;5.050;2024-03-02T10:36:58;99984.91;;;11.94;82.16
80892;BME280;70343;51.530;5.050;2024-03-02T10:39:24;99982.69;;;11.97;85.60
80892;BME280;70343;51.530;5.050;2024-03-02T10:41:51;99979.25;;;12.15;86.14
80892;BME280;70343;51.530;5.050;2024-03-02T10:44:18;99973.56;;;12.36;79.26
80892;BME280;70343;51.530;5.050;2024-03-02T10:46:45;99972.34;;;12.20;74.97
80892;BME280;70343;51.530;5.050;2024-03-02T10:49:11;99985.03;;;12.35;80.72
80892;BME280;70343;51.530;5.050;2024-03-02T10:51:37;99977.22;;;12.46;76.82
80892;BME280;70343;51.530;5.050;2024-03-02T10:54:03;99959.94;;;12.45;79.10
80892;BME280;70343;51.530;5.050;2024-03-02T10:56:31;99971.25;;;12.28;75.16
80892;BME280;70343;51.530;5.050;2024-03-02T10:59:25;99980.25;;;12.32;78.73
80892;BME280;70343;51.530;5.050;2024-03-02T11:01:55;99966.94;;;12.33;78.68
80892;BME280;70343;51.530;5.050;2024-03-02T11:04:24;99988.25;;;12.19;75.05
80892;BME280;70343;51.530;5.050;2024-03-02T11:06:51;99988.13;;;12.43;75.57
80892;BME280;70343;51.530;5.050;2024-03-02T11:09:23;99978.84;;;12.47;77.34
80892;BME280;70343;51.530;5.050;2024-03-02T11:12:03;99976.22;;;12.77;71.77
80892;BME280;70343;51.530;5.050;2024-03-02T11:14:32;99971.91;;;12.83;76.07
80892;BME280;70343;51.530;5.050;2024-03-02T11:17:01;99965.78;;;12.89;75.34
80892;BME280;70343;51.530;5.050;2024-03-02T11:19:29;99980.31;;;12.85;72.08
80892;BME280;70343;51.530;5.050;2024-03-02T11:21:56;99978.97;;;12.94;73.32
80892;BME280;70343;51.530;5.050;2024-03-02T11:26:49;99975.13;;;12.67;70.91
80892;BME280;70343;51.530;5.050;2024-03-02T11:32:03;99973.47;;;12.84;73.72
80892;BME280;70343;51.530;5.050;2024-03-02T11:34:34;99962.81;;;12.85;70.59
80892;BME280;70343;51.530;5.050;2024-03-02T11:37:03;99970.16;;;13.06;72.73
80892;BME280;70343;51.530;5.050;2024-03-02T11:39:29;99974.78;;;12.93;72.58
80892;BME280;70343;51.530;5.050;2024-03-02T11:41:56;99962.31;;;12.77;75.28
80892;BME280;70343;51.530;5.050;2024-03-02T11:44:22;99964.09;;;12.65;74.96
80892;BME280;70343;51.530;5.050;2024-03-02T11:47:00;99969.06;;;12.96;74.03
80892;BME280;70343;51.530;5.050;2024-03-02T11:49:43;99955.09;;;13.02;75.07
80892;BME280;70343;51.530;5.050;2024-03-02T11:52:11;99951.38;;;13.09;72.04
80892;BME280;70343;51.530;5.050;2024-03-02T11:54:38;99945.00;;;13.28;72.29
80892;BME280;70343;51.530;5.050;2024-03-02T11:57:12;99944.00;;;13.18;70.30
80892;BME280;70343;51.530;5.050;2024-03-02T11:59:38;99940.13;;;13.32;72.40
80892;BME280;70343;51.530;5.050;2024-03-02T12:02:03;99943.19;;;13.40;70.69
80892;BME280;70343;51.530;5.050;2024-03-02T12:04:29;99937.94;;;13.29;69.45
80892;BME280;70343;51.530;5.050;2024-03-02T12:06:56;99930.38;;;12.98;69.52
80892;BME280;70343;51.530;5.050;2024-03-02T12:09:22;99928.84;;;13.20;73.33
80892;BME280;70343;51.530;5.050;2024-03-02T12:11:47;99915.75;;;13.31;71.70
80892;BME280;70343;51.530;5.050;2024-03-02T12:14:13;99914.38;;;13.52;67.23
80892;BME280;70343;51.530;5.050;2024-03-02T12:16:39;99906.09;;;13.44;74.22
80892;BME280;70343;51.530;5.050;2024-03-02T12:19:05;99904.75;;;13.69;74.63
80892;BME280;70343;51.530;5.050;2024-03-02T12:21:31;99895.38;;;13.96;67.50
80892;BME280;70343;51.530;5.050;2024-03-02T12:23:57;99895.84;;;14.21;68.29
80892;BME280;70343;51.530;5.050;2024-03-02T12:26:23;99886.47;;;13.97;66.78
80892;BME280;70343;51.530;5.050;2024-03-02T12:28:49;99884.22;;;14.17;69.38
80892;BME280;70343;51.530;5.050;2024-03-02T12:31:15;99883.25;;;14.35;70.00
80892;BME280;70343;51.530;5.050;2024-03-02T12:33:41;99882.06;;;14.14;68.90
80892;BME280;70343;51.530;5.050;2024-03-02T12:36:10;99891.13;;;14.35;67.30
80892;BME280;70343;51.530;5.050;2024-03-02T12:38:37;99879.47;;;14.43;67.74
80892;BME280;70343;51.530;5.050;2024-03-02T12:41:03;99882.72;;;13.93;69.45
80892;BME280;70343;51.530;5.050;2024-03-02T12:43:31;99868.69;;;13.99;69.51
80892;BME280;70343;51.530;5.050;2024-03-02T12:45:58;99865.63;;;13.91;70.67
80892;BME280;70343;51.530;5.050;2024-03-02T12:48:23;99854.81;;;13.87;69.42
80892;BME280;70343;51.530;5.050;2024-03-02T12:50:49;99849.25;;;13.84;68.37
80892;BME280;70343;51.530;5.050;2024-03-02T12:53:15;99866.38;;;13.75;67.68
80892;BME280;70343;51.530;5.050;2024-03-02T12:55:42;99856.13;;;13.73;65.74
80892;BME280;70343;51.530;5.050;2024-03-02T12:58:17;99849.09;;;13.62;66.86
80892;BME280;70343;51.530;5.050;2024-03-02T13:00:42;99841.25;;;13.90;66.86
80892;BME280;70343;51.530;5.050;2024-03-02T13:03:08;99836.09;;;13.95;66.17